Forside
METAR-TAF:

METAR-TAF

Lufthavne :

Lansing Municipal Airport

Lansing, Illinois, USA

Breddekreds: 41-32-24N, længdekreds: 087-31-56W, højde: 188 m

Aktuelle vejr

Denne rapport blev lavet for 29 minutter siden, kl. 12:15 UTC
Vind 4 kt fra sydøst
Temperatur 0°C
Fugtighed 100%
Tryk 1025 hPa
Sigt: 3.2 km
Spredte skyer i en højde af 300 ft
Brudte skyer i en højde af 700 ft
Overskyet i en højde af 2200 ft
let sne

METAR: KIGQ 241215Z AUTO 14004KT 2SM -SN SCT003 BKN007 OVC022 00/00 A3027 RMK AO2 P0002 T00010001

Tid: 06:44 (12:44 UTC)


TAF: fraværende

Vejrobservationer og prognoser fra mere end 4000 lufthavne (METAR og TAF).

De gule og røde prikker repræsenterer de meteorologiske stationer.

Flyt musen over at se navnet på stationen.

Så klik over at se vejr observationer og prognoser.

At skifte det kort: Klik på de grønne knapper med et sort kors for at zoome ind; på den grønne knap med en bindestreg for at zoome ud; eller på de grønne pile for tilstødende kort.


METAR-TAF: